Aviation Digital Data Service (ADDS)

Output produced by METARs form (0202 UTC 30 July 2016)
found at http://aviationweather.gov/adds/metars/
 
KISO 292320Z 3000/3024 VRB05KT P6SM FEW050 SCT120 
     FM301800 21008KT P6SM VCTS BKN040CB AMD LTD TO CLD VIS AND WIND